createdAt,value
2018-10-03T00:01:35.458Z,16.83
2018-10-03T00:04:04.983Z,16.83
2018-10-03T00:06:34.487Z,16.78
2018-10-03T00:09:05.278Z,16.75
2018-10-03T00:11:34.849Z,16.73
2018-10-03T00:14:04.539Z,16.72
2018-10-03T00:16:34.610Z,16.68
2018-10-03T00:19:04.283Z,15.94
2018-10-03T00:21:33.814Z,16.64
2018-10-03T00:24:03.410Z,16.63
2018-10-03T00:26:32.919Z,16.62
2018-10-03T00:29:02.494Z,16.62
2018-10-03T00:31:32.080Z,16.64
2018-10-03T00:34:01.663Z,16.67
2018-10-03T00:36:31.190Z,16.66
2018-10-03T00:39:00.748Z,16.64
2018-10-03T00:41:30.306Z,16.67
2018-10-03T00:43:59.843Z,16.68
2018-10-03T00:46:29.353Z,16.68
2018-10-03T00:48:58.898Z,16.71
2018-10-03T00:51:28.444Z,16.71
2018-10-03T00:53:57.999Z,16.75
2018-10-03T00:56:27.762Z,16.75
2018-10-03T00:58:57.483Z,16.77
2018-10-03T01:01:26.997Z,16.75
2018-10-03T01:03:56.574Z,16.78
2018-10-03T01:06:26.120Z,16.77
2018-10-03T01:08:55.619Z,16.75
2018-10-03T01:11:25.128Z,16.73
2018-10-03T01:13:54.670Z,16.68
2018-10-03T01:16:24.253Z,16.67
2018-10-03T01:18:53.820Z,16.68
2018-10-03T01:21:23.351Z,16.66
2018-10-03T01:23:52.898Z,16.61
2018-10-03T01:26:22.494Z,16.51
2018-10-03T01:28:52.065Z,16.49
2018-10-03T01:31:21.566Z,16.48
2018-10-03T01:33:51.154Z,16.39
2018-10-03T01:36:20.702Z,16.24
2018-10-03T01:38:50.254Z,16.19
2018-10-03T01:41:19.788Z,16.18
2018-10-03T01:43:49.359Z,16.25
2018-10-03T01:46:18.906Z,16.24
2018-10-03T01:48:48.491Z,16.29
2018-10-03T01:51:18.115Z,16.32
2018-10-03T01:53:47.646Z,16.37
2018-10-03T01:56:17.158Z,16.42
2018-10-03T01:58:46.671Z,16.46
2018-10-03T02:01:16.226Z,16.45
2018-10-03T02:03:45.797Z,16.45
2018-10-03T02:06:15.345Z,16.46
2018-10-03T02:08:44.886Z,16.50
2018-10-03T02:11:14.413Z,16.47
2018-10-03T02:13:43.970Z,16.52
2018-10-03T02:16:13.495Z,15.78
2018-10-03T02:18:43.049Z,16.46
2018-10-03T02:21:12.690Z,16.44
2018-10-03T02:23:42.235Z,16.45
2018-10-03T02:26:11.746Z,16.40
2018-10-03T02:28:41.315Z,16.40
2018-10-03T02:31:10.878Z,16.40
2018-10-03T02:33:40.437Z,16.40
2018-10-03T02:36:09.992Z,16.41
2018-10-03T02:38:39.501Z,16.42
2018-10-03T02:41:09.083Z,16.37
2018-10-03T02:43:38.612Z,16.41
2018-10-03T02:46:08.183Z,16.39
2018-10-03T02:48:37.723Z,16.41
2018-10-03T02:51:07.340Z,16.38
2018-10-03T02:53:36.848Z,16.35
2018-10-03T02:56:06.410Z,16.33
2018-10-03T02:58:35.907Z,16.32
2018-10-03T03:01:05.476Z,16.34
2018-10-03T03:03:35.002Z,16.30
2018-10-03T03:06:04.665Z,16.30
2018-10-03T03:08:34.243Z,16.33
2018-10-03T03:11:03.732Z,16.30
2018-10-03T03:13:33.366Z,16.27
2018-10-03T03:16:02.920Z,16.27
2018-10-03T03:18:32.467Z,16.26
2018-10-03T03:21:02.096Z,16.27
2018-10-03T03:23:31.664Z,16.26
2018-10-03T03:26:01.231Z,16.21
2018-10-03T03:28:30.755Z,15.90
2018-10-03T03:31:00.266Z,16.13
2018-10-03T03:33:29.787Z,16.09
2018-10-03T03:35:59.344Z,16.11
2018-10-03T03:38:28.832Z,16.10
2018-10-03T03:40:58.421Z,16.08
2018-10-03T03:43:27.959Z,15.99
2018-10-03T03:45:57.501Z,16.02
2018-10-03T03:48:27.033Z,16.01
2018-10-03T03:50:56.598Z,15.99
2018-10-03T03:53:26.138Z,15.98
2018-10-03T03:55:55.758Z,15.94
2018-10-03T03:58:25.320Z,15.93
2018-10-03T04:00:54.883Z,15.92
2018-10-03T04:03:24.403Z,15.92
2018-10-03T04:05:53.959Z,15.96
2018-10-03T04:08:23.474Z,15.99
2018-10-03T04:10:53.039Z,15.91
2018-10-03T04:13:22.526Z,15.90
2018-10-03T04:15:52.069Z,15.90
2018-10-03T04:18:21.643Z,15.93
2018-10-03T04:20:51.286Z,15.89
2018-10-03T04:23:20.790Z,15.94
2018-10-03T04:25:50.361Z,15.97
2018-10-03T04:28:19.879Z,15.96
2018-10-03T04:30:49.427Z,15.96
2018-10-03T04:33:18.973Z,15.99
2018-10-03T04:35:48.550Z,15.96
2018-10-03T04:38:18.066Z,15.99
2018-10-03T04:40:47.632Z,16.05
2018-10-03T04:43:17.202Z,16.06
2018-10-03T04:45:46.761Z,16.12
2018-10-03T04:48:16.360Z,16.14
2018-10-03T04:50:45.907Z,16.22
2018-10-03T04:53:15.589Z,16.23
2018-10-03T04:55:45.085Z,16.26
2018-10-03T04:58:14.712Z,16.34
2018-10-03T05:00:44.294Z,16.39
2018-10-03T05:03:13.913Z,16.46
2018-10-03T05:05:43.531Z,16.54
2018-10-03T05:08:13.084Z,16.66
2018-10-03T05:10:42.592Z,16.72
2018-10-03T05:13:12.146Z,16.77
2018-10-03T05:15:41.703Z,16.83
2018-10-03T05:18:11.342Z,16.90
2018-10-03T05:20:40.907Z,17.10
2018-10-03T05:23:10.442Z,17.22
2018-10-03T05:25:40.099Z,17.36
2018-10-03T05:28:09.686Z,17.53
2018-10-03T05:30:39.248Z,17.50
2018-10-03T05:33:08.896Z,17.52
2018-10-03T05:35:38.456Z,17.42
2018-10-03T05:38:08.078Z,17.50
2018-10-03T05:40:37.732Z,17.42
2018-10-03T05:43:07.303Z,17.51
2018-10-03T05:45:36.883Z,17.59
2018-10-03T05:48:06.638Z,17.72
2018-10-03T05:50:36.221Z,17.81
2018-10-03T05:53:05.863Z,17.78
2018-10-03T05:55:35.464Z,17.93
2018-10-03T05:58:05.044Z,17.92
2018-10-03T06:00:34.728Z,17.92
2018-10-03T06:03:04.223Z,18.02
2018-10-03T06:05:33.976Z,18.08
2018-10-03T06:08:03.730Z,18.25
2018-10-03T06:10:33.302Z,18.33
2018-10-03T06:13:03.016Z,18.32
2018-10-03T06:15:32.553Z,18.33
2018-10-03T06:18:02.188Z,18.33
2018-10-03T06:20:31.723Z,18.29
2018-10-03T06:23:01.390Z,17.01
2018-10-03T06:25:31.079Z,18.48
2018-10-03T06:28:00.779Z,18.46
2018-10-03T06:30:30.320Z,17.88
2018-10-03T06:33:00.039Z,18.46
2018-10-03T06:35:29.566Z,18.57
2018-10-03T06:37:59.237Z,18.75
2018-10-03T06:40:28.790Z,18.74
2018-10-03T06:42:58.391Z,18.88
2018-10-03T06:45:27.996Z,18.94
2018-10-03T06:47:57.603Z,19.03
2018-10-03T06:50:27.142Z,19.12
2018-10-03T06:52:56.710Z,19.16
2018-10-03T06:55:26.342Z,19.20
2018-10-03T06:57:55.924Z,19.17
2018-10-03T07:00:25.475Z,19.17
2018-10-03T07:02:55.077Z,19.15
2018-10-03T07:05:24.598Z,19.15
2018-10-03T07:07:54.158Z,19.32
2018-10-03T07:10:23.842Z,19.32
2018-10-03T07:12:53.358Z,19.43
2018-10-03T07:15:22.922Z,19.48
2018-10-03T07:17:52.524Z,19.57
2018-10-03T07:20:22.107Z,19.65
2018-10-03T07:22:51.718Z,19.66
2018-10-03T07:25:21.281Z,19.78
2018-10-03T07:27:50.852Z,19.81
2018-10-03T07:30:20.436Z,19.96
2018-10-03T07:32:49.979Z,20.08
2018-10-03T07:35:19.563Z,20.24
2018-10-03T07:37:49.163Z,20.36
2018-10-03T07:40:18.763Z,20.47
2018-10-03T07:42:48.387Z,20.48
2018-10-03T07:45:18.943Z,20.52
2018-10-03T07:47:48.625Z,20.66
2018-10-03T07:50:18.116Z,20.65
2018-10-03T07:52:47.708Z,20.76
2018-10-03T07:55:17.263Z,20.89
2018-10-03T07:57:46.846Z,20.84
2018-10-03T08:00:16.844Z,20.87
2018-10-03T08:02:46.446Z,20.87
2018-10-03T08:05:15.950Z,21.00
2018-10-03T08:07:45.492Z,21.06
2018-10-03T08:10:16.110Z,21.17
2018-10-03T08:12:45.691Z,20.65
2018-10-03T08:15:15.275Z,21.46
2018-10-03T08:17:44.861Z,21.53
2018-10-03T08:20:14.482Z,21.49
2018-10-03T08:22:44.082Z,21.58
2018-10-03T08:25:13.746Z,21.54
2018-10-03T08:27:43.496Z,21.71
2018-10-03T08:30:13.180Z,21.81
2018-10-03T08:32:42.900Z,21.80
2018-10-03T08:35:12.481Z,21.91
2018-10-03T08:37:42.118Z,21.94
2018-10-03T08:40:11.805Z,21.95
2018-10-03T08:42:41.639Z,21.98
2018-10-03T08:45:11.340Z,21.93
2018-10-03T08:47:40.876Z,21.82
2018-10-03T08:50:11.927Z,21.84
2018-10-03T08:52:41.560Z,21.87
2018-10-03T08:55:11.170Z,21.88
2018-10-03T08:57:41.704Z,21.87
2018-10-03T09:00:11.779Z,22.04
2018-10-03T09:02:41.456Z,22.20
2018-10-03T09:05:11.812Z,22.23
2018-10-03T09:07:41.413Z,22.36
2018-10-03T09:10:11.266Z,22.45
2018-10-03T09:12:40.939Z,22.54
2018-10-03T09:15:10.572Z,22.66
2018-10-03T09:17:40.163Z,22.73
2018-10-03T09:20:09.711Z,22.79
2018-10-03T09:22:39.262Z,22.17
2018-10-03T09:25:09.259Z,22.86
2018-10-03T09:27:38.814Z,22.89
2018-10-03T09:30:08.372Z,23.02
2018-10-03T09:32:37.955Z,23.02
2018-10-03T09:35:07.689Z,23.13
2018-10-03T09:37:37.252Z,23.16
2018-10-03T09:40:06.862Z,23.25
2018-10-03T09:42:36.506Z,23.35
2018-10-03T09:45:06.447Z,23.37
2018-10-03T09:47:36.114Z,23.50
2018-10-03T09:50:06.200Z,23.39
2018-10-03T09:52:35.784Z,23.43
2018-10-03T09:55:05.540Z,23.36
2018-10-03T09:57:35.125Z,23.22
2018-10-03T10:00:05.362Z,23.35
2018-10-03T10:02:35.007Z,23.38
2018-10-03T10:05:04.784Z,23.42
2018-10-03T10:07:34.540Z,23.40
2018-10-03T10:10:04.336Z,23.54
2018-10-03T10:12:33.934Z,23.55
2018-10-03T10:15:03.592Z,23.52
2018-10-03T10:17:33.149Z,23.47
2018-10-03T10:20:02.792Z,23.54
2018-10-03T10:22:32.300Z,23.45
2018-10-03T10:25:01.909Z,23.58
2018-10-03T10:27:31.483Z,23.57
2018-10-03T10:30:01.054Z,23.69
2018-10-03T10:32:30.623Z,23.67
2018-10-03T10:35:00.504Z,23.67
2018-10-03T10:37:30.196Z,23.68
2018-10-03T10:39:59.924Z,23.69
2018-10-03T10:42:29.583Z,23.60
2018-10-03T10:44:59.168Z,23.54
2018-10-03T10:47:28.737Z,23.58
2018-10-03T10:49:58.400Z,23.63
2018-10-03T10:52:28.018Z,23.61
2018-10-03T10:54:57.714Z,23.64
2018-10-03T10:57:27.324Z,23.71
2018-10-03T10:59:57.007Z,23.75
2018-10-03T11:02:26.623Z,23.75
2018-10-03T11:04:56.272Z,23.80
2018-10-03T11:07:25.933Z,23.86
2018-10-03T11:09:55.546Z,23.90
2018-10-03T11:12:25.139Z,23.88
2018-10-03T11:14:54.799Z,23.97
2018-10-03T11:17:24.347Z,23.93
2018-10-03T11:19:54.054Z,23.87
2018-10-03T11:22:23.608Z,23.91
2018-10-03T11:24:53.235Z,23.94
2018-10-03T11:27:22.717Z,24.03
2018-10-03T11:29:52.258Z,24.02
2018-10-03T11:32:21.811Z,23.97
2018-10-03T11:34:51.594Z,23.86
2018-10-03T11:37:21.266Z,23.86
2018-10-03T11:39:50.885Z,23.89
2018-10-03T11:42:20.770Z,23.85
2018-10-03T11:44:50.327Z,23.78
2018-10-03T11:47:20.015Z,23.82
2018-10-03T11:49:49.622Z,23.89
2018-10-03T11:52:19.224Z,23.98
2018-10-03T11:54:48.908Z,23.93
2018-10-03T11:57:18.611Z,23.90
2018-10-03T11:59:48.286Z,23.36
2018-10-03T12:02:17.871Z,23.94
2018-10-03T12:04:47.530Z,23.96
2018-10-03T12:07:17.204Z,23.96
2018-10-03T12:09:46.819Z,24.05
2018-10-03T12:12:16.418Z,24.03
2018-10-03T12:14:46.026Z,24.11
2018-10-03T12:17:15.775Z,24.11
2018-10-03T12:19:45.442Z,23.48
2018-10-03T12:22:15.023Z,24.17
2018-10-03T12:24:44.802Z,24.17
2018-10-03T12:27:14.469Z,24.19
2018-10-03T12:29:44.136Z,24.20
2018-10-03T12:32:13.787Z,24.20
2018-10-03T12:34:43.460Z,24.25
2018-10-03T12:37:13.078Z,24.26
2018-10-03T12:39:42.709Z,24.28
2018-10-03T12:42:12.306Z,24.25
2018-10-03T12:44:41.966Z,24.29
2018-10-03T12:47:11.551Z,24.29
2018-10-03T12:49:41.177Z,24.31
2018-10-03T12:52:10.998Z,24.35
2018-10-03T12:54:40.611Z,24.36
2018-10-03T12:57:10.323Z,23.23
2018-10-03T12:59:39.890Z,24.46
2018-10-03T13:02:09.453Z,24.48
2018-10-03T13:04:39.362Z,24.54
2018-10-03T13:07:09.055Z,23.99
2018-10-03T13:09:38.681Z,24.59
2018-10-03T13:12:08.366Z,24.62
2018-10-03T13:14:38.019Z,24.67
2018-10-03T13:17:07.774Z,24.67
2018-10-03T13:19:37.284Z,24.67
2018-10-03T13:22:07.249Z,24.73
2018-10-03T13:24:36.937Z,24.70
2018-10-03T13:27:06.573Z,24.67
2018-10-03T13:29:36.227Z,24.20
2018-10-03T13:32:05.898Z,24.59
2018-10-03T13:34:35.523Z,24.56
2018-10-03T13:37:05.218Z,24.58
2018-10-03T13:39:34.998Z,24.57
2018-10-03T13:42:04.678Z,24.59
2018-10-03T13:44:34.327Z,24.57
2018-10-03T13:47:04.030Z,24.55
2018-10-03T13:49:33.618Z,24.53
2018-10-03T13:52:03.257Z,24.44
2018-10-03T13:54:32.830Z,24.49
2018-10-03T13:57:02.483Z,24.55
2018-10-03T13:59:32.125Z,24.62
2018-10-03T14:02:01.872Z,24.68
2018-10-03T14:04:31.478Z,24.76
2018-10-03T14:07:01.090Z,24.80
2018-10-03T14:09:31.023Z,24.84
2018-10-03T14:12:00.654Z,24.88
2018-10-03T14:14:30.310Z,24.87
2018-10-03T14:16:59.944Z,24.87
2018-10-03T14:19:29.620Z,24.87
2018-10-03T14:21:59.640Z,24.86
2018-10-03T14:24:29.287Z,24.82
2018-10-03T14:26:58.901Z,24.83
2018-10-03T14:29:28.499Z,24.74
2018-10-03T14:31:58.430Z,24.79
2018-10-03T14:34:28.014Z,24.80
2018-10-03T14:36:57.618Z,24.78
2018-10-03T14:39:27.211Z,24.73
2018-10-03T14:41:56.723Z,24.68
2018-10-03T14:44:26.289Z,24.67
2018-10-03T14:46:55.881Z,24.65
2018-10-03T14:49:25.419Z,24.59
2018-10-03T14:51:54.926Z,24.53
2018-10-03T14:54:24.592Z,24.51
2018-10-03T14:56:54.101Z,24.44
2018-10-03T14:59:23.639Z,24.39
2018-10-03T15:01:53.183Z,24.27
2018-10-03T15:04:22.730Z,24.22
2018-10-03T15:06:52.262Z,24.17
2018-10-03T15:09:21.828Z,24.10
2018-10-03T15:11:51.440Z,24.02
2018-10-03T15:14:20.966Z,23.98
2018-10-03T15:16:50.514Z,23.90
2018-10-03T15:19:20.066Z,23.84
2018-10-03T15:21:49.647Z,23.73
2018-10-03T15:24:19.209Z,23.66
2018-10-03T15:26:48.726Z,23.62
2018-10-03T15:29:18.337Z,23.55
2018-10-03T15:31:47.874Z,23.47
2018-10-03T15:34:17.367Z,23.46
2018-10-03T15:36:47.019Z,23.42
2018-10-03T15:39:16.523Z,23.38
2018-10-03T15:41:46.080Z,23.31
2018-10-03T15:44:15.590Z,23.27
2018-10-03T15:46:45.174Z,23.23
2018-10-03T15:49:14.685Z,23.16
2018-10-03T15:51:44.281Z,23.15
2018-10-03T15:54:13.809Z,23.10
2018-10-03T15:56:43.423Z,23.07
2018-10-03T15:59:12.955Z,23.05
2018-10-03T16:01:42.522Z,22.96
2018-10-03T16:04:12.050Z,22.86
2018-10-03T16:06:41.663Z,22.77
2018-10-03T16:09:11.449Z,22.73
2018-10-03T16:11:41.738Z,22.68
2018-10-03T16:14:11.567Z,22.65
2018-10-03T16:16:41.140Z,22.60
2018-10-03T16:19:10.679Z,22.59
2018-10-03T16:21:40.463Z,22.57
2018-10-03T16:24:10.020Z,22.53
2018-10-03T16:26:39.707Z,22.53
2018-10-03T16:29:09.363Z,22.52
2018-10-03T16:31:38.983Z,22.50
2018-10-03T16:34:08.651Z,22.50
2018-10-03T16:36:38.176Z,22.47
2018-10-03T16:39:09.490Z,22.45
2018-10-03T16:41:38.963Z,22.40
2018-10-03T16:44:08.629Z,22.37
2018-10-03T16:46:38.161Z,22.33
2018-10-03T16:49:07.780Z,22.32
2018-10-03T16:51:37.355Z,22.28
2018-10-03T16:54:06.899Z,22.25
2018-10-03T16:56:36.542Z,22.24
2018-10-03T16:59:06.275Z,22.19
2018-10-03T17:01:36.007Z,22.18
2018-10-03T17:04:05.848Z,22.18
2018-10-03T17:06:35.444Z,22.14
2018-10-03T17:09:06.040Z,22.11
2018-10-03T17:11:36.022Z,22.07
2018-10-03T17:14:23.383Z,22.05
2018-10-03T17:16:53.740Z,22.01
2018-10-03T17:19:23.259Z,21.98
2018-10-03T17:21:53.473Z,21.94
2018-10-03T17:24:24.344Z,21.92
2018-10-03T17:26:53.893Z,21.88
2018-10-03T17:29:23.443Z,21.86
2018-10-03T17:31:53.041Z,21.84
2018-10-03T17:34:22.640Z,21.82
2018-10-03T17:36:53.911Z,21.78
2018-10-03T17:39:24.338Z,21.73
2018-10-03T17:41:53.920Z,21.67
2018-10-03T17:44:23.766Z,21.63
2018-10-03T17:46:54.603Z,21.58
2018-10-03T17:49:24.158Z,21.51
2018-10-03T17:51:53.732Z,21.42
2018-10-03T17:54:23.270Z,21.35
2018-10-03T17:56:52.783Z,21.31
2018-10-03T17:59:22.396Z,21.23
2018-10-03T18:01:53.946Z,21.19
2018-10-03T18:04:23.512Z,21.14
2018-10-03T18:06:53.043Z,21.08
2018-10-03T18:09:22.643Z,21.04
2018-10-03T18:11:52.162Z,21.00
2018-10-03T18:14:21.682Z,20.93
2018-10-03T18:16:51.247Z,20.92
2018-10-03T18:19:20.844Z,20.88
2018-10-03T18:21:50.388Z,20.86
2018-10-03T18:24:19.971Z,20.84
2018-10-03T18:26:49.523Z,20.82
2018-10-03T18:29:19.060Z,20.78
2018-10-03T18:31:48.627Z,20.73
2018-10-03T18:34:18.195Z,20.71
2018-10-03T18:36:47.750Z,20.66
2018-10-03T18:39:17.290Z,20.65
2018-10-03T18:41:46.856Z,20.65
2018-10-03T18:44:16.340Z,20.59
2018-10-03T18:46:45.908Z,20.61
2018-10-03T18:49:15.409Z,20.56
2018-10-03T18:51:44.976Z,20.55
2018-10-03T18:54:14.531Z,20.53
2018-10-03T18:56:44.074Z,20.49
2018-10-03T18:59:13.587Z,20.49
2018-10-03T19:01:43.173Z,20.55
2018-10-03T19:04:12.666Z,20.50
2018-10-03T19:06:42.249Z,20.49
2018-10-03T19:09:11.794Z,20.49
2018-10-03T19:11:41.332Z,20.48
2018-10-03T19:14:10.886Z,20.48
2018-10-03T19:16:40.398Z,20.49
2018-10-03T19:19:09.927Z,20.56
2018-10-03T19:21:39.414Z,20.60
2018-10-03T19:24:09.016Z,20.56
2018-10-03T19:26:38.591Z,20.55
2018-10-03T19:29:08.159Z,20.61
2018-10-03T19:31:37.709Z,20.56
2018-10-03T19:34:07.230Z,20.58
2018-10-03T19:36:36.790Z,20.59
2018-10-03T19:39:07.262Z,20.59
2018-10-03T19:41:37.001Z,20.56
2018-10-03T19:44:06.688Z,20.54
2018-10-03T19:46:36.279Z,20.51
2018-10-03T19:49:05.802Z,20.48
2018-10-03T19:51:35.331Z,20.42
2018-10-03T19:54:04.898Z,20.38
2018-10-03T19:56:34.450Z,20.39
2018-10-03T19:59:03.990Z,20.39
2018-10-03T20:01:33.527Z,20.39
2018-10-03T20:04:03.175Z,20.40
2018-10-03T20:06:32.687Z,20.34
2018-10-03T20:09:02.210Z,20.33
2018-10-03T20:11:31.742Z,20.30
2018-10-03T20:14:01.275Z,20.25
2018-10-03T20:16:30.843Z,20.21
2018-10-03T20:19:00.354Z,20.16
2018-10-03T20:21:29.898Z,20.15
2018-10-03T20:23:59.467Z,20.14
2018-10-03T20:26:29.007Z,20.11
2018-10-03T20:28:58.480Z,20.10
2018-10-03T20:31:28.016Z,20.06
2018-10-03T20:33:57.572Z,20.04
2018-10-03T20:36:27.163Z,20.07
2018-10-03T20:38:56.651Z,20.05
2018-10-03T20:41:26.239Z,19.97
2018-10-03T20:43:55.784Z,19.97
2018-10-03T20:46:25.358Z,19.95
2018-10-03T20:48:54.854Z,19.95
2018-10-03T20:51:24.415Z,19.95
2018-10-03T20:53:54.074Z,19.89
2018-10-03T20:56:23.567Z,19.86
2018-10-03T20:58:53.131Z,19.87
2018-10-03T21:01:22.691Z,19.85
2018-10-03T21:03:52.324Z,19.85
2018-10-03T21:06:21.893Z,19.84
2018-10-03T21:08:51.552Z,19.81
2018-10-03T21:11:21.149Z,19.90
2018-10-03T21:13:50.723Z,19.87
2018-10-03T21:16:20.364Z,19.84
2018-10-03T21:18:49.985Z,19.83
2018-10-03T21:21:19.584Z,19.81
2018-10-03T21:23:49.200Z,19.86
2018-10-03T21:26:18.756Z,19.81
2018-10-03T21:28:48.364Z,19.81
2018-10-03T21:31:17.964Z,19.80
2018-10-03T21:33:47.578Z,19.78
2018-10-03T21:36:17.172Z,19.76
2018-10-03T21:38:46.780Z,19.74
2018-10-03T21:41:16.353Z,19.73
2018-10-03T21:43:45.979Z,19.72
2018-10-03T21:46:15.597Z,19.53
2018-10-03T21:48:45.122Z,19.55
2018-10-03T21:51:14.624Z,19.57
2018-10-03T21:53:44.154Z,19.43
2018-10-03T21:56:13.695Z,19.38
2018-10-03T21:58:43.232Z,19.27
2018-10-03T22:01:12.758Z,19.25
2018-10-03T22:03:42.302Z,19.04
2018-10-03T22:06:11.860Z,19.06
2018-10-03T22:08:41.431Z,18.97
2018-10-03T22:11:11.031Z,18.89
2018-10-03T22:13:40.582Z,18.86
2018-10-03T22:16:10.077Z,18.69
2018-10-03T22:18:39.581Z,18.75
2018-10-03T22:21:09.132Z,18.61
2018-10-03T22:23:38.645Z,18.56
2018-10-03T22:26:08.230Z,18.43
2018-10-03T22:28:37.746Z,18.38
2018-10-03T22:31:07.321Z,18.34
2018-10-03T22:33:36.838Z,18.23
2018-10-03T22:36:06.442Z,18.23
2018-10-03T22:38:36.386Z,18.17
2018-10-03T22:41:06.002Z,17.97
2018-10-03T22:43:36.050Z,17.93
2018-10-03T22:46:05.764Z,17.88
2018-10-03T22:48:35.379Z,17.77
2018-10-03T22:51:04.902Z,17.69
2018-10-03T22:53:34.501Z,17.60
2018-10-03T22:56:04.031Z,17.58
2018-10-03T22:58:33.599Z,17.53
2018-10-03T23:01:03.134Z,17.46
2018-10-03T23:03:32.668Z,17.41
2018-10-03T23:06:02.230Z,17.29
2018-10-03T23:08:31.751Z,16.49
2018-10-03T23:11:01.353Z,17.16
2018-10-03T23:13:30.975Z,17.20
2018-10-03T23:16:00.515Z,17.16
2018-10-03T23:18:30.092Z,17.04
2018-10-03T23:20:59.638Z,16.98
2018-10-03T23:23:29.176Z,16.96
2018-10-03T23:25:58.719Z,16.90
2018-10-03T23:28:28.249Z,16.86
2018-10-03T23:30:57.771Z,16.86
2018-10-03T23:33:27.268Z,16.86
2018-10-03T23:35:56.871Z,16.86
2018-10-03T23:38:26.427Z,16.89
2018-10-03T23:40:56.280Z,16.88
2018-10-03T23:43:25.908Z,16.87
2018-10-03T23:45:55.512Z,16.94
2018-10-03T23:48:25.116Z,16.83
2018-10-03T23:50:54.705Z,16.90
2018-10-03T23:53:24.389Z,16.88
2018-10-03T23:55:54.025Z,16.90
2018-10-03T23:58:23.580Z,16.93
